ENANENSH

Guest
Details From ENAN - ANDOYA
To ENSH - Svolvaer Helle
Flight Number -
Tags generated
Created
Modified
Stats Distance 71 nm / 131 km
Max Altitude 8,200 ft / 2,499 m
Waypoints 3
Social Downloads 1
Likes 0
Share VATSIM

Download

Looking for another format? Having issues loading an existing format? Contact us
Advertisement - Login to hide

Notes

Basic altitude profile: - Ascent Rate: 2500ft/min - Ascent Speed: 250kts - Cruise Altitude: 35000ft - Cruise Speed: 420kts - Descent Rate: 1500ft/min - Descent Speed: 250kts Options: - Use NATs: yes - Use PACOTS: yes - Use low airways: yes - Use high airways: yes

Route

ENAN AND32 ENSH

ID Type Via Altitude Latitude Longitude Leg Dist Tot Dist Heading (true) Name
O ENAN APT - 0 ft / 0 m 69.29335˚ 16.13775˚ - 0 nm - ANDOYA
AND32 FIX - 8,200 ft / 2,499 m 68.82306˚ 15.40750˚ 32 nm 32 nm 209° / 209° -
O ENSH APT - 0 ft / 0 m 68.24260˚ 14.66856˚ 38 nm 70 nm 205° / 205° Svolvaer Helle

Altitude Profile

Advertisement - Login to hide

ENAN

Details ICAO ENAN (ANX)
Name ANDOYA
Region Norway
Timezone Europe/Oslo (UTC+1.0)
Stats Elevation 43 ft / 13 m (AMSL)
Location 69.293353° 16.137750°
Runways 2
Magnetic Variation 7.093° E

METAR

ENAN 172120Z 19008KT 9999 -SN FEW005 SCT012 BKN023 00/M01 Q0999

Decode

TAF

TAF TAF ENAN 171700Z 1718/1818 22008KT 9999 FEW015CB BKN025 TEMPO 1718/1724 1000 SHSNRAGS VV006

Decode

Departure Runways

ID Width Length Bearing (true) Bearing (mag) Surface Threshold Offset Overrun Length
03 148 ft / 45 m 5,468 ft / 1,667 m 31.41° 24.32° Asphalt 0 ft / 0 m 0 ft / 0 m
14 148 ft / 45 m 9,830 ft / 2,996 m 149.75° 142.66° Asphalt 823 ft / 251 m 0 ft / 0 m
21 148 ft / 45 m 5,468 ft / 1,667 m 211.43° 204.34° Asphalt 0 ft / 0 m 0 ft / 0 m
32 148 ft / 45 m 9,830 ft / 2,996 m 329.78° 322.69° Asphalt 886 ft / 270 m 0 ft / 0 m

ENSH

Details ICAO ENSH (SVJ)
Name Svolvaer Helle
Region Norway
Timezone Unknown (UTC+0.0)
Stats Elevation 27 ft / 8 m (AMSL)
Location 68.242598° 14.668558°
Runways 1
Magnetic Variation 6.045° E

METAR

ENSH 172050Z VRB01KT 9999 VCSH FEW020 SCT030 M00/M01 Q1001 RMK WIND 150FT VRB02KT

Decode

TAF

Not found

Destination Runways

ID Width Length Bearing (true) Bearing (mag) Surface Threshold Offset Overrun Length
01 98 ft / 30 m 3,097 ft / 944 m 192.17° 186.12° Asphalt 230 ft / 70 m 0 ft / 0 m
19 98 ft / 30 m 3,097 ft / 944 m 12.17° 6.12° Asphalt 230 ft / 70 m 0 ft / 0 m